Time;durP1;ratioP1;P1;durP2;ratioP2;P2;SDS_P1;SDS_P2;PMS_P1;PMS_P2;Temp;Humidity;BMP_temperature;BMP_pressure;BME280_temperature;BME280_humidity;BME280_pressure;Samples;Min_cycle;Max_cycle;Signal;HPM_P1;HPM_P2
2022/08/06 00:00:23;;;;;;;2.70;1.10;;;16.60;83.30;;;;;;5107929;28;20054;-67
2022/08/06 00:02:53;;;;;;;6.63;1.10;;;16.70;83.60;;;;;;5112335;28;20048;-69
2022/08/06 00:05:20;;;;;;;3.13;1.35;;;16.60;84.10;;;;;;5094363;28;20044;-68
2022/08/06 00:07:57;;;;;;;3.33;1.10;;;16.60;84.70;;;;;;5091282;28;20054;-65
2022/08/06 00:10:27;;;;;;;6.75;4.20;;;16.60;84.30;;;;;;5095008;28;20055;-62
2022/08/06 00:12:58;;;;;;;6.13;3.03;;;16.60;84.50;;;;;;5092379;28;20079;-65
2022/08/06 00:15:29;;;;;;;10.18;7.57;;;16.70;85.20;;;;;;5095975;28;20044;-71
2022/08/06 00:18:16;;;;;;;3.80;2.90;;;16.60;85.60;;;;;;5102036;28;20044;-69
2022/08/06 00:20:44;;;;;;;4.70;1.90;;;16.60;85.90;;;;;;5098884;28;20547;-68
2022/08/06 00:23:15;;;;;;;2.60;1.40;;;16.60;86.00;;;;;;5104919;28;20466;-68
2022/08/06 00:25:44;;;;;;;3.00;1.30;;;16.60;86.20;;;;;;5091149;28;20483;-67
2022/08/06 00:28:22;;;;;;;4.22;1.65;;;16.60;86.30;;;;;;5101358;28;20075;-67
2022/08/06 00:31:02;;;;;;;2.05;1.13;;;16.60;86.90;;;;;;5094224;28;20043;-67
2022/08/06 00:33:37;;;;;;;4.38;1.52;;;16.50;88.00;;;;;;5094438;28;20121;-64
2022/08/06 00:36:17;;;;;;;3.40;1.80;;;16.40;88.00;;;;;;5089381;28;20145;-70
2022/08/06 00:38:51;;;;;;;3.25;1.55;;;16.30;89.10;;;;;;5111877;28;20459;-64
2022/08/06 00:41:18;;;;;;;3.58;1.58;;;16.30;89.70;;;;;;5077491;28;20052;-68
2022/08/06 00:43:48;;;;;;;4.57;1.58;;;16.20;90.00;;;;;;5093008;28;20048;-66
2022/08/06 00:46:15;;;;;;;4.70;2.17;;;16.20;90.20;;;;;;5107632;28;20059;-66
2022/08/06 00:48:45;;;;;;;16.17;10.77;;;16.10;90.40;;;;;;5106138;28;20443;-65
2022/08/06 00:51:21;;;;;;;29.85;19.40;;;16.00;91.00;;;;;;5115140;28;20047;-65
2022/08/06 00:53:49;;;;;;;10.25;6.72;;;16.10;91.20;;;;;;5114307;28;20049;-71
2022/08/06 00:56:23;;;;;;;6.95;4.03;;;16.10;91.10;;;;;;5105928;28;20398;-68
2022/08/06 00:58:55;;;;;;;9.85;5.60;;;16.10;91.60;;;;;;5082376;28;20044;-68
2022/08/06 01:01:30;;;;;;;4.50;2.53;;;16.00;91.70;;;;;;5094866;28;20112;-65
2022/08/06 01:04:15;;;;;;;4.45;2.90;;;15.90;92.10;;;;;;5103480;28;20079;-68
2022/08/06 01:06:42;;;;;;;5.13;2.78;;;15.90;92.30;;;;;;5113521;28;20054;-67
2022/08/06 01:09:24;;;;;;;5.28;2.33;;;15.80;92.80;;;;;;5079445;28;20133;-68
2022/08/06 01:11:50;;;;;;;4.20;2.47;;;15.70;93.10;;;;;;5080256;28;20051;-68
2022/08/06 01:14:20;;;;;;;3.70;2.67;;;15.70;93.30;;;;;;5112468;28;20096;-68
2022/08/06 01:17:26;;;;;;;8.43;3.20;;;15.70;93.50;;;;;;5114327;28;20059;-68
2022/08/06 01:20:02;;;;;;;6.30;3.40;;;15.60;94.10;;;;;;5115077;28;20039;-67
2022/08/06 01:23:01;;;;;;;5.75;3.33;;;15.60;94.40;;;;;;5108334;28;20143;-69
2022/08/06 01:25:47;;;;;;;;;;;15.50;94.60;;;;;;5115242;27;20113;-67
2022/08/06 01:28:24;;;;;;;4.20;3.33;;;15.50;95.10;;;;;;5112471;28;19930;-67
2022/08/06 01:31:07;;;;;;;8.75;3.72;;;15.40;95.30;;;;;;5093350;28;20056;-69
2022/08/06 01:33:44;;;;;;;7.13;3.40;;;15.40;95.50;;;;;;5107329;28;20051;-67
2022/08/06 01:36:20;;;;;;;9.63;4.78;;;15.40;95.80;;;;;;5111806;28;20043;-69
2022/08/06 01:38:54;;;;;;;4.47;4.00;;;15.30;95.90;;;;;;5110732;28;20090;-68
2022/08/06 01:41:39;;;;;;;4.78;3.70;;;15.30;96.10;;;;;;5112703;28;20135;-68
2022/08/06 01:44:29;;;;;;;6.43;4.00;;;15.30;96.30;;;;;;5100999;28;20136;-69
2022/08/06 01:46:58;;;;;;;6.38;3.42;;;15.30;96.80;;;;;;5096664;28;20051;-68
2022/08/06 01:49:29;;;;;;;9.63;3.65;;;15.20;96.90;;;;;;5092649;28;20055;-69
2022/08/06 01:52:16;;;;;;;5.63;4.18;;;15.20;96.70;;;;;;5097094;28;20048;-69
2022/08/06 01:54:58;;;;;;;;;;;15.20;97.00;;;;;;5111149;28;20131;-69
2022/08/06 01:57:25;;;;;;;5.32;3.53;;;15.20;98.10;;;;;;5111836;28;19923;-69
2022/08/06 02:00:12;;;;;;;7.97;3.72;;;15.10;98.00;;;;;;5112862;28;20051;-69
2022/08/06 02:02:41;;;;;;;5.53;3.80;;;15.00;98.10;;;;;;5112217;28;20067;-69
2022/08/06 02:05:09;;;;;;;8.75;4.25;;;15.00;98.20;;;;;;5079706;28;20211;-68
2022/08/06 02:07:40;;;;;;;6.18;4.53;;;15.00;98.70;;;;;;5113274;28;20043;-69
2022/08/06 02:10:27;;;;;;;6.85;3.90;;;15.00;98.90;;;;;;5080501;28;20044;-69
2022/08/06 02:12:54;;;;;;;6.78;4.35;;;15.00;99.20;;;;;;5111797;28;20517;-69
2022/08/06 02:15:29;;;;;;;5.05;4.10;;;14.90;99.40;;;;;;5096917;28;20062;-69
2022/08/06 02:18:16;;;;;;;7.32;4.82;;;14.90;99.70;;;;;;5098424;28;20120;-69
2022/08/06 02:21:00;;;;;;;9.50;5.13;;;14.90;99.90;;;;;;5112641;28;20130;-69
2022/08/06 02:23:44;;;;;;;7.60;5.32;;;14.90;99.90;;;;;;5088726;28;20048;-69
2022/08/06 02:26:11;;;;;;;6.85;3.78;;;14.80;99.90;;;;;;5101093;28;20047;-69
2022/08/06 02:28:41;;;;;;;;;;;14.80;99.90;;;;;;5112913;28;20051;-69
2022/08/06 02:31:08;;;;;;;7.50;4.63;;;14.80;99.90;;;;;;5112545;28;19919;-69
2022/08/06 02:33:35;;;;;;;7.32;4.18;;;14.70;99.90;;;;;;5112759;27;20048;-69
2022/08/06 02:36:35;;;;;;;8.50;5.03;;;14.70;99.90;;;;;;5112944;28;20101;-69
2022/08/06 02:39:23;;;;;;;8.18;5.05;;;14.70;99.90;;;;;;5112104;28;20045;-69
2022/08/06 02:42:20;;;;;;;8.98;5.22;;;14.70;99.90;;;;;;5109399;28;20044;-69
2022/08/06 02:45:01;;;;;;;8.10;5.25;;;14.60;99.90;;;;;;5111377;28;20062;-69
2022/08/06 02:47:29;;;;;;;8.82;4.50;;;14.60;99.90;;;;;;5112119;28;20078;-69
2022/08/06 02:50:17;;;;;;;6.05;5.00;;;14.60;99.90;;;;;;5101990;28;20055;-69
2022/08/06 02:52:51;;;;;;;10.15;5.95;;;14.50;99.90;;;;;;5058377;28;20048;-69
2022/08/06 02:55:26;;;;;;;7.35;5.45;;;14.50;99.90;;;;;;5097399;28;20047;-69
2022/08/06 02:58:19;;;;;;;6.43;5.30;;;14.40;99.90;;;;;;5105810;28;20047;-69
2022/08/06 03:00:55;;;;;;;8.23;4.97;;;14.40;99.90;;;;;;5109847;28;20048;-69
2022/08/06 03:03:22;;;;;;;7.15;4.88;;;14.30;99.90;;;;;;5109918;28;20047;-69
2022/08/06 03:06:02;;;;;;;8.15;5.18;;;14.30;99.90;;;;;;5111516;28;20044;-69
2022/08/06 03:08:29;;;;;;;8.88;5.28;;;14.30;99.90;;;;;;5113094;28;20054;-69
2022/08/06 03:10:56;;;;;;;9.15;4.97;;;14.30;99.90;;;;;;5111000;28;20054;-69
2022/08/06 03:13:24;;;;;;;7.63;4.97;;;14.20;99.90;;;;;;5095307;28;20055;-69
2022/08/06 03:16:01;;;;;;;6.70;4.65;;;14.10;99.90;;;;;;5110812;28;20043;-69
2022/08/06 03:18:28;;;;;;;9.60;5.43;;;14.00;99.90;;;;;;5113005;28;20055;-69
2022/08/06 03:20:55;;;;;;;7.97;5.30;;;14.00;99.90;;;;;;5102256;28;20047;-69
2022/08/06 03:23:23;;;;;;;9.52;5.18;;;13.90;99.90;;;;;;5111956;28;20075;-68
2022/08/06 03:25:53;;;;;;;8.82;5.55;;;13.80;99.90;;;;;;5090340;28;20039;-69
2022/08/06 03:28:20;;;;;;;9.52;5.65;;;13.70;99.90;;;;;;5084626;28;20479;-68
2022/08/06 03:30:48;;;;;;;8.53;5.40;;;13.70;99.90;;;;;;5095788;28;20040;-69
2022/08/06 03:33:21;;;;;;;7.68;5.40;;;13.70;99.90;;;;;;5075793;28;20852;-69
2022/08/06 03:36:07;;;;;;;8.05;5.28;;;13.70;99.90;;;;;;5093815;28;20046;-69
2022/08/06 03:38:38;;;;;;;9.90;5.95;;;13.70;99.90;;;;;;5078082;28;20086;-69
2022/08/06 03:41:05;;;;;;;7.90;6.13;;;13.60;99.90;;;;;;5109701;28;20059;-68
2022/08/06 03:43:33;;;;;;;9.63;6.70;;;13.60;99.90;;;;;;5111398;28;20065;-68
2022/08/06 03:46:27;;;;;;;9.82;6.38;;;13.60;99.90;;;;;;5111034;28;20055;-69
2022/08/06 03:48:55;;;;;;;7.80;6.20;;;13.60;99.90;;;;;;5094899;28;20416;-68
2022/08/06 03:51:25;;;;;;;8.40;5.85;;;13.50;99.90;;;;;;5092819;28;20047;-68
2022/08/06 03:54:12;;;;;;;9.18;6.72;;;13.40;99.90;;;;;;5110180;28;20047;-69
2022/08/06 03:56:40;;;;;;;8.90;6.53;;;13.40;99.90;;;;;;5091456;28;20044;-57
2022/08/06 03:59:12;;;;;;;53.25;40.85;;;13.40;99.90;;;;;;5084535;28;20044;-69
2022/08/06 04:01:41;;;;;;;13.57;10.93;;;13.40;99.90;;;;;;5097494;28;20055;-69
2022/08/06 04:04:15;;;;;;;12.43;9.30;;;13.30;99.90;;;;;;5083434;28;20371;-69
2022/08/06 04:06:56;;;;;;;11.15;8.15;;;13.30;99.90;;;;;;5094360;28;20091;-69
2022/08/06 04:09:24;;;;;;;11.55;7.78;;;13.30;99.90;;;;;;5104252;28;20048;-69
2022/08/06 04:12:11;;;;;;;10.32;7.32;;;13.30;99.90;;;;;;5095105;28;20036;-69
2022/08/06 04:14:58;;;;;;;12.93;8.00;;;13.30;99.90;;;;;;5115424;28;20047;-69
2022/08/06 04:17:26;;;;;;;10.80;6.30;;;13.10;99.90;;;;;;5115809;28;20051;-69
2022/08/06 04:19:58;;;;;;;10.55;7.22;;;13.10;99.90;;;;;;5098856;28;20039;-69
2022/08/06 04:22:25;;;;;;;11.48;7.65;;;13.00;99.90;;;;;;5115425;28;20082;-68
2022/08/06 04:25:12;;;;;;;12.40;8.55;;;13.00;99.90;;;;;;5097073;28;20496;-69
2022/08/06 04:27:40;;;;;;;11.23;7.70;;;12.90;99.90;;;;;;5116146;27;20054;-69
2022/08/06 04:30:22;;;;;;;14.30;7.93;;;12.90;99.90;;;;;;5099731;28;20050;-69
2022/08/06 04:32:51;;;;;;;11.27;7.80;;;12.90;99.90;;;;;;5116458;28;20098;-69
2022/08/06 04:35:27;;;;;;;13.80;9.45;;;12.90;99.90;;;;;;5115168;28;20044;-69
2022/08/06 04:38:15;;;;;;;12.95;8.65;;;12.90;99.90;;;;;;5115484;28;20100;-69
2022/08/06 04:40:42;;;;;;;10.32;8.27;;;13.00;99.90;;;;;;5113864;28;20043;-69
2022/08/06 04:43:19;;;;;;;11.15;8.82;;;12.90;99.90;;;;;;5114324;28;20040;-68
2022/08/06 04:45:47;;;;;;;14.30;8.82;;;13.00;99.90;;;;;;5113250;28;20054;-68
2022/08/06 04:48:34;;;;;;;12.02;9.18;;;13.00;99.90;;;;;;5110213;28;20071;-69
2022/08/06 04:51:05;;;;;;;14.15;9.52;;;13.00;99.90;;;;;;5113571;28;20051;-69
2022/08/06 04:53:40;;;;;;;13.10;8.70;;;13.00;99.90;;;;;;5113670;28;20078;-68
2022/08/06 04:56:22;;;;;;;10.93;8.88;;;13.00;99.90;;;;;;5110747;28;20040;-68
2022/08/06 04:58:55;;;;;;;12.57;9.02;;;13.00;99.90;;;;;;5109871;28;20399;-69
2022/08/06 05:01:26;;;;;;;11.63;8.68;;;12.90;99.90;;;;;;5110739;28;20039;-69
2022/08/06 05:04:06;;;;;;;13.43;9.63;;;12.90;99.90;;;;;;5114212;28;20490;-68
2022/08/06 05:06:46;;;;;;;13.95;8.80;;;12.80;99.90;;;;;;5112224;28;20150;-68
2022/08/06 05:09:22;;;;;;;10.32;8.70;;;12.90;99.90;;;;;;5110802;28;20044;-68
2022/08/06 05:12:19;;;;;;;14.77;9.45;;;12.90;99.90;;;;;;5110038;27;20044;-69
2022/08/06 05:14:48;;;;;;;12.20;8.07;;;13.00;99.90;;;;;;5110030;28;20043;-69
2022/08/06 05:17:17;;;;;;;13.15;8.80;;;13.30;99.90;;;;;;5112375;28;20052;-68
2022/08/06 05:19:51;;;;;;;11.75;9.10;;;13.70;99.90;;;;;;5109595;28;20541;-69
2022/08/06 05:22:19;;;;;;;12.70;9.48;;;14.10;99.90;;;;;;5097107;28;20063;-69
2022/08/06 05:25:06;;;;;;;10.18;8.50;;;14.50;99.90;;;;;;5100287;28;20498;-69
2022/08/06 05:27:45;;;;;;;13.68;9.57;;;15.00;99.90;;;;;;5084546;28;20104;-66
2022/08/06 05:30:32;;;;;;;10.77;9.02;;;15.30;99.90;;;;;;5096715;28;20063;-66
2022/08/06 05:32:59;;;;;;;11.10;8.77;;;15.60;99.90;;;;;;5112312;28;20047;-68
2022/08/06 05:35:28;;;;;;;11.50;8.77;;;15.90;99.90;;;;;;5112320;28;20047;-67
2022/08/06 05:38:08;;;;;;;12.90;9.43;;;16.20;99.90;;;;;;5111825;28;20044;-67
2022/08/06 05:40:37;;;;;;;10.43;9.02;;;16.50;99.90;;;;;;5110597;28;20448;-66
2022/08/06 05:43:23;;;;;;;16.77;10.50;;;16.70;99.90;;;;;;5111548;28;20551;-67
2022/08/06 05:45:54;;;;;;;10.15;9.00;;;17.00;99.90;;;;;;5110289;28;20056;-67
2022/08/06 05:48:23;;;;;;;12.02;9.90;;;17.10;99.90;;;;;;5113187;28;20068;-66
2022/08/06 05:51:10;;;;;;;12.35;9.50;;;17.30;99.90;;;;;;5111165;28;20043;-67
2022/08/06 05:53:44;;;;;;;14.20;9.77;;;17.40;99.90;;;;;;5112933;28;20052;-66
2022/08/06 05:56:34;;;;;;;10.82;9.15;;;17.40;99.90;;;;;;5098638;28;20048;-66
2022/08/06 05:59:09;;;;;;;12.35;10.00;;;17.10;99.90;;;;;;5095832;28;20570;-66
2022/08/06 06:01:56;;;;;;;12.35;8.93;;;16.90;99.90;;;;;;5108227;28;20048;-67
2022/08/06 06:04:23;;;;;;;10.35;9.35;;;16.70;99.90;;;;;;5110722;28;20066;-67
2022/08/06 06:06:59;;;;;;;13.45;9.55;;;16.60;99.90;;;;;;5096846;28;20051;-66
2022/08/06 06:09:30;;;;;;;10.77;9.15;;;16.40;99.90;;;;;;5110385;28;20047;-67
2022/08/06 06:12:17;;;;;;;11.18;9.07;;;16.40;99.90;;;;;;5097300;28;20525;-67
2022/08/06 06:14:48;;;;;;;13.38;9.48;;;16.30;99.90;;;;;;5109950;28;20127;-69
2022/08/06 06:17:27;;;;;;;11.65;8.23;;;16.20;99.90;;;;;;5081330;28;20055;-67
2022/08/06 06:20:08;;;;;;;12.88;9.65;;;16.10;99.90;;;;;;5099237;28;20117;-67
2022/08/06 06:23:14;;;;;;;12.68;9.23;;;16.10;99.90;;;;;;5110265;28;20039;-68
2022/08/06 06:26:01;;;;;;;12.40;9.00;;;16.10;99.90;;;;;;5114378;28;20388;-67
2022/08/06 06:28:55;;;;;;;16.90;10.95;;;16.10;99.90;;;;;;5112778;28;20039;-67
2022/08/06 06:31:40;;;;;;;12.73;9.32;;;16.20;99.90;;;;;;5090127;28;20048;-67
2022/08/06 06:34:36;;;;;;;13.50;9.80;;;16.20;99.90;;;;;;5105312;28;20075;-67
2022/08/06 06:37:18;;;;;;;15.02;9.48;;;16.30;99.90;;;;;;5110756;28;20055;-67
2022/08/06 06:40:27;;;;;;;13.00;10.02;;;16.40;99.90;;;;;;5112619;28;20100;-67
2022/08/06 06:43:27;;;;;;;11.18;10.05;;;16.40;99.90;;;;;;5112176;28;20506;-67
2022/08/06 06:46:21;;;;;;;15.18;10.63;;;16.30;99.90;;;;;;5109866;28;20048;-67
2022/08/06 06:49:14;;;;;;;16.35;10.75;;;16.20;99.90;;;;;;5109854;28;20281;-68
2022/08/06 06:52:19;;;;;;;13.23;10.20;;;16.30;99.90;;;;;;5096791;28;20039;-68
2022/08/06 06:55:09;;;;;;;16.58;11.30;;;16.30;99.90;;;;;;5102282;28;20101;-68
2022/08/06 06:57:47;;;;;;;11.07;9.77;;;16.30;99.90;;;;;;5096760;28;20052;-67
2022/08/06 07:00:17;;;;;;;15.15;9.85;;;16.30;99.90;;;;;;5092583;28;20053;-68
2022/08/06 07:03:05;;;;;;;16.55;9.40;;;16.30;99.90;;;;;;5092719;28;20616;-68
2022/08/06 07:05:36;;;;;;;16.08;11.20;;;16.30;99.90;;;;;;5107381;28;20052;-68
2022/08/06 07:08:23;;;;;;;24.00;11.00;;;16.30;99.90;;;;;;5096760;28;20491;-67
2022/08/06 07:11:04;;;;;;;12.02;9.63;;;16.40;99.90;;;;;;5111692;28;20139;-67
2022/08/06 07:13:31;;;;;;;14.93;10.32;;;16.40;99.90;;;;;;5111685;28;20044;-68
2022/08/06 07:16:21;;;;;;;12.02;9.68;;;16.40;99.90;;;;;;5106750;28;20093;-68
2022/08/06 07:19:05;;;;;;;28.55;11.95;;;16.40;99.90;;;;;;5094129;28;20055;-68
2022/08/06 07:21:39;;;;;;;26.50;12.25;;;16.40;99.90;;;;;;5093275;28;20088;-68
2022/08/06 07:24:17;;;;;;;17.55;11.57;;;16.60;99.90;;;;;;5091999;28;20430;-68
2022/08/06 07:27:04;;;;;;;15.27;10.30;;;16.60;99.90;;;;;;5094516;28;20044;-68
2022/08/06 07:29:32;;;;;;;13.82;10.40;;;16.70;99.90;;;;;;5109963;28;20126;-67
2022/08/06 07:32:19;;;;;;;12.32;9.18;;;16.70;99.90;;;;;;5096329;28;20490;-67
2022/08/06 07:34:59;;;;;;;13.35;10.05;;;16.70;99.90;;;;;;5093486;28;20047;-68
2022/08/06 07:37:26;;;;;;;15.93;10.88;;;16.70;99.90;;;;;;5107471;28;20572;-68
2022/08/06 07:40:06;;;;;;;15.10;10.40;;;16.70;99.90;;;;;;5107936;28;20043;-68
2022/08/06 07:42:34;;;;;;;12.55;10.23;;;16.80;99.90;;;;;;5109975;28;20054;-68
2022/08/06 07:45:02;;;;;;;11.52;9.38;;;16.80;99.90;;;;;;5111010;28;20044;-68
2022/08/06 07:47:37;;;;;;;12.20;9.93;;;16.80;99.90;;;;;;5109234;28;20056;-68
2022/08/06 07:50:21;;;;;;;13.65;9.60;;;16.80;99.90;;;;;;5096474;28;20046;-68
2022/08/06 07:52:50;;;;;;;14.95;10.52;;;16.90;99.90;;;;;;5089175;28;20056;-68
2022/08/06 07:55:17;;;;;;;13.13;9.18;;;16.90;99.90;;;;;;5095079;28;20062;-68
2022/08/06 07:57:44;;;;;;;13.73;10.35;;;16.80;99.90;;;;;;5083153;28;20463;-68
2022/08/06 08:00:24;;;;;;;12.05;8.80;;;16.80;99.90;;;;;;5107333;28;20124;-68
2022/08/06 08:06:20;;;;;;;13.18;9.45;;;16.90;99.90;;;;;;5106547;28;20490;-68
2022/08/06 08:08:57;;;;;;;13.30;10.93;;;16.90;99.90;;;;;;5092980;28;20063;-68
2022/08/06 08:11:24;;;;;;;11.43;9.60;;;16.90;99.90;;;;;;5110311;28;20506;-68
2022/08/06 08:14:13;;;;;;;10.60;9.10;;;16.90;99.90;;;;;;5106341;28;20098;-68
2022/08/06 08:16:41;;;;;;;;;;;17.00;99.90;;;;;;5103951;28;20059;-68
2022/08/06 08:19:33;;;;;;;14.90;9.52;;;17.00;99.90;;;;;;5102516;28;19923;-69
2022/08/06 08:22:10;;;;;;;14.45;10.65;;;17.00;99.90;;;;;;5111417;28;20051;-69
2022/08/06 08:24:39;;;;;;;19.58;12.40;;;17.10;99.90;;;;;;5088203;28;20035;-75
2022/08/06 08:27:09;;;;;;;15.05;11.40;;;17.10;99.90;;;;;;5100951;28;20043;-69
2022/08/06 08:29:56;;;;;;;;;;;17.20;99.90;;;;;;5099380;28;20495;-70
2022/08/06 08:32:25;;;;;;;;;;;17.20;99.90;;;;;;5109463;28;19969;-70
2022/08/06 08:34:52;;;;;;;19.48;11.35;;;17.30;99.90;;;;;;5106560;28;20371;-70
2022/08/06 08:37:23;;;;;;;12.57;10.18;;;17.30;99.90;;;;;;5093004;28;20514;-70
2022/08/06 08:39:50;;;;;;;16.85;10.90;;;17.40;99.90;;;;;;5107222;28;20048;-70
2022/08/06 08:42:35;;;;;;;15.70;10.75;;;17.40;99.90;;;;;;5092929;28;20043;-71
2022/08/06 08:45:04;;;;;;;14.85;9.82;;;17.40;99.90;;;;;;5093786;28;20458;-70
2022/08/06 08:47:44;;;;;;;13.88;10.32;;;17.30;99.90;;;;;;5088842;28;20051;-70
2022/08/06 08:50:21;;;;;;;14.80;10.33;;;17.40;99.90;;;;;;5096100;28;20467;-70
2022/08/06 08:52:53;;;;;;;12.85;8.90;;;17.50;99.90;;;;;;5114049;28;20050;-70
2022/08/06 08:55:23;;;;;;;13.45;8.38;;;17.50;99.90;;;;;;5113856;28;20058;-70
2022/08/06 08:58:11;;;;;;;8.07;7.03;;;17.50;99.90;;;;;;5098663;28;20055;-70
2022/08/06 09:00:58;;;;;;;11.20;6.97;;;17.60;99.90;;;;;;5102414;28;20040;-70
2022/08/06 09:03:25;;;;;;;21.52;15.73;;;17.60;99.90;;;;;;5110889;28;20043;-70
2022/08/06 09:05:52;;;;;;;12.02;8.48;;;17.70;99.90;;;;;;5108857;28;20042;-70
2022/08/06 09:08:20;;;;;;;12.38;8.00;;;17.70;99.90;;;;;;5111336;28;20055;-70
2022/08/06 09:11:07;;;;;;;10.30;7.45;;;17.70;99.90;;;;;;5082921;28;20051;-70
2022/08/06 09:13:54;;;;;;;10.35;8.15;;;17.80;99.90;;;;;;5109584;28;20539;-70
2022/08/06 09:16:27;;;;;;;9.20;6.78;;;17.70;99.90;;;;;;5111701;28;20061;-70
2022/08/06 09:18:58;;;;;;;9.10;6.50;;;17.80;99.90;;;;;;5114505;28;20421;-70
2022/08/06 09:21:26;;;;;;;10.73;7.00;;;17.80;99.90;;;;;;5108483;28;20498;-70
2022/08/06 09:23:55;;;;;;;10.88;6.97;;;17.80;99.90;;;;;;5096410;28;20073;-71
2022/08/06 09:26:24;;;;;;;10.73;7.13;;;17.90;99.90;;;;;;5097748;28;20082;-70
2022/08/06 09:29:21;;;;;;;9.38;6.35;;;17.90;99.90;;;;;;5101420;28;20039;-71
2022/08/06 09:31:57;;;;;;;19.48;16.17;;;18.00;99.90;;;;;;5111476;28;20089;-65
2022/08/06 09:34:38;;;;;;;28.92;24.52;;;18.10;99.90;;;;;;5112777;28;20043;-72
2022/08/06 09:37:12;;;;;;;11.55;7.63;;;18.10;98.50;;;;;;5105759;28;20565;-68
2022/08/06 09:39:45;;;;;;;10.52;6.63;;;18.20;99.40;;;;;;5095420;28;20050;-69
2022/08/06 09:42:39;;;;;;;8.40;5.88;;;18.30;99.10;;;;;;5099850;28;20044;-69
2022/08/06 09:45:14;;;;;;;6.70;5.50;;;18.40;98.00;;;;;;5112932;28;20057;-69
2022/08/06 09:47:47;;;;;;;9.93;6.95;;;18.40;95.80;;;;;;5110412;28;20055;-69
2022/08/06 09:50:41;;;;;;;7.53;5.82;;;18.50;94.20;;;;;;5111467;28;20062;-69
2022/08/06 09:53:11;;;;;;;7.60;5.35;;;18.50;92.50;;;;;;5110043;28;20479;-69
2022/08/06 09:55:43;;;;;;;9.98;6.25;;;18.50;94.00;;;;;;5111110;28;20047;-68
2022/08/06 09:58:10;;;;;;;8.70;5.18;;;18.50;94.20;;;;;;5109183;28;20505;-69
2022/08/06 10:00:38;;;;;;;7.63;5.93;;;18.60;93.70;;;;;;5111642;28;20059;-68
2022/08/06 10:03:06;;;;;;;9.77;5.93;;;18.70;92.20;;;;;;5110849;28;20047;-69
2022/08/06 10:06:07;;;;;;;8.82;6.35;;;18.70;90.40;;;;;;5097846;28;20067;-68
2022/08/06 10:08:40;;;;;;;8.02;5.40;;;18.70;89.50;;;;;;5105091;28;20047;-69
2022/08/06 10:11:07;;;;;;;9.20;6.07;;;18.80;91.10;;;;;;5108765;28;20467;-72
2022/08/06 10:13:38;;;;;;;7.53;5.82;;;18.80;91.30;;;;;;5075936;28;20048;-71
2022/08/06 10:16:30;;;;;;;12.57;7.47;;;18.90;92.20;;;;;;5111609;28;20503;-68
2022/08/06 10:18:58;;;;;;;66.45;59.20;;;19.00;92.90;;;;;;5110168;28;20071;-68
2022/08/06 10:21:44;;;;;;;26.75;23.20;;;19.10;91.80;;;;;;5111246;28;20047;-69
2022/08/06 10:24:12;;;;;;;9.40;7.30;;;19.00;91.30;;;;;;5107124;28;20044;-69
2022/08/06 10:26:59;;;;;;;12.40;9.93;;;19.00;90.70;;;;;;5104146;28;20040;-69
2022/08/06 10:29:28;;;;;;;10.23;7.30;;;19.10;90.60;;;;;;5077661;28;20047;-75
2022/08/06 10:31:59;;;;;;;9.00;6.47;;;19.10;89.20;;;;;;5093055;28;20047;-70
2022/08/06 10:34:27;;;;;;;8.98;6.80;;;19.10;88.80;;;;;;5110010;28;20111;-75
2022/08/06 10:37:02;;;;;;;7.00;5.78;;;19.20;88.80;;;;;;5111701;28;20453;-75
2022/08/06 10:39:51;;;;;;;12.05;7.10;;;19.30;87.60;;;;;;5084675;28;20044;-72
2022/08/06 10:42:37;;;;;;;10.15;6.65;;;19.50;86.90;;;;;;5104815;28;20437;-72
2022/08/06 10:45:07;;;;;;;7.82;6.35;;;19.50;87.80;;;;;;5108762;28;20138;-73
2022/08/06 10:47:42;;;;;;;7.55;5.60;;;19.50;88.10;;;;;;5069737;28;20131;-73
2022/08/06 10:50:29;;;;;;;9.23;5.90;;;19.50;85.80;;;;;;5106919;28;20047;-74
2022/08/06 10:53:11;;;;;;;11.18;6.00;;;19.50;86.60;;;;;;5095775;28;20530;-73
2022/08/06 10:56:01;;;;;;;7.25;5.70;;;19.50;85.20;;;;;;5109604;28;20059;-72
2022/08/06 10:58:29;;;;;;;8.35;5.63;;;19.50;85.60;;;;;;5102323;28;20044;-72
2022/08/06 11:00:58;;;;;;;8.05;6.10;;;19.50;84.80;;;;;;5107149;28;20043;-73
2022/08/06 11:03:49;;;;;;;12.13;6.95;;;19.70;83.80;;;;;;5111303;28;20149;-74
2022/08/06 11:06:41;;;;;;;10.35;5.50;;;19.80;81.20;;;;;;5105990;28;20040;-72
2022/08/06 11:09:42;;;;;;;7.55;6.47;;;19.80;80.30;;;;;;5107843;28;20043;-71
2022/08/06 11:13:01;;;;;;;6.85;5.70;;;19.80;80.50;;;;;;5096391;28;20044;-71
2022/08/06 11:15:28;;;;;;;6.85;5.40;;;19.90;80.90;;;;;;5059108;28;20044;-70
2022/08/06 11:18:05;;;;;;;9.60;6.03;;;19.90;81.00;;;;;;5094602;28;20131;-70
2022/08/06 11:20:32;;;;;;;6.85;5.68;;;20.00;80.70;;;;;;5107481;28;20063;-71
2022/08/06 11:23:04;;;;;;;7.38;5.35;;;20.10;79.30;;;;;;5100256;28;20036;-72
2022/08/06 11:25:41;;;;;;;8.27;6.03;;;20.20;80.90;;;;;;5094597;28;20047;-71
2022/08/06 11:28:16;;;;;;;6.68;5.95;;;20.40;78.40;;;;;;5109321;28;20052;-71
2022/08/06 11:30:51;;;;;;;6.38;5.45;;;20.40;76.40;;;;;;5091816;28;20885;-71
2022/08/06 11:33:19;;;;;;;9.30;5.53;;;20.40;76.60;;;;;;5105199;28;20122;-71
2022/08/06 11:35:49;;;;;;;7.93;5.72;;;20.50;75.50;;;;;;5110714;28;20073;-71
2022/08/06 11:38:46;;;;;;;8.68;5.93;;;20.50;75.00;;;;;;5098091;28;20047;-71
2022/08/06 11:41:17;;;;;;;9.20;6.22;;;20.50;75.40;;;;;;5110454;28;20051;-72
2022/08/06 11:44:07;;;;;;;7.93;6.07;;;20.70;74.70;;;;;;5099305;28;20101;-71
2022/08/06 11:46:35;;;;;;;11.05;5.85;;;20.70;74.30;;;;;;5109553;28;20105;-71
2022/08/06 11:49:14;;;;;;;8.32;6.05;;;20.70;73.70;;;;;;5109764;28;20509;-71
2022/08/06 11:51:49;;;;;;;8.05;6.05;;;20.70;72.40;;;;;;5110544;28;20498;-70
2022/08/06 11:54:55;;;;;;;16.17;14.55;;;20.70;72.80;;;;;;5102062;28;20507;-69
2022/08/06 11:57:23;;;;;;;8.32;7.53;;;20.70;72.40;;;;;;5097609;28;20063;-71
2022/08/06 12:00:11;;;;;;;8.45;6.10;;;21.00;71.40;;;;;;5103976;28;20050;-64
2022/08/06 12:02:42;;;;;;;7.53;5.85;;;21.10;71.00;;;;;;5080662;28;20044;-64
2022/08/06 12:05:13;;;;;;;10.27;5.72;;;21.20;70.10;;;;;;5111376;28;20055;-64
2022/08/06 12:07:44;;;;;;;8.32;6.25;;;21.30;70.00;;;;;;5110997;28;20044;-63
2022/08/06 12:10:18;;;;;;;6.80;6.10;;;21.30;70.00;;;;;;5102190;28;20086;-62
2022/08/06 12:12:55;;;;;;;12.45;5.85;;;21.40;69.30;;;;;;5110478;28;20054;-64
2022/08/06 12:15:26;;;;;;;8.30;5.57;;;21.40;69.10;;;;;;5111262;28;20407;-66
2022/08/06 12:18:12;;;;;;;8.82;5.10;;;21.50;68.30;;;;;;5107328;28;20080;-60
2022/08/06 12:20:48;;;;;;;8.75;4.90;;;21.40;67.10;;;;;;5108217;28;20092;-53
2022/08/06 12:23:22;;;;;;;7.55;5.68;;;21.50;66.90;;;;;;5104251;28;20089;-73
2022/08/06 12:26:09;;;;;;;8.90;5.65;;;21.50;66.20;;;;;;5092882;28;20044;-66
2022/08/06 12:28:36;;;;;;;9.45;5.28;;;21.50;67.80;;;;;;5092550;28;20044;-68
2022/08/06 12:31:04;;;;;;;8.35;5.20;;;21.60;68.10;;;;;;5111173;28;20640;-65
2022/08/06 12:33:51;;;;;;;7.07;5.80;;;21.80;67.10;;;;;;5113103;28;20460;-69
2022/08/06 12:36:18;;;;;;;7.90;6.28;;;22.00;66.20;;;;;;5112713;28;20044;-69
2022/08/06 12:39:03;;;;;;;6.55;5.40;;;22.10;65.60;;;;;;5113364;28;20088;-69
2022/08/06 12:41:37;;;;;;;;;;;22.00;64.70;;;;;;5115337;28;20047;-68
2022/08/06 12:44:13;;;;;;;9.38;5.47;;;22.00;63.90;;;;;;5108503;28;20383;-66
2022/08/06 12:46:46;;;;;;;5.38;4.43;;;22.00;64.90;;;;;;5114485;28;20052;-66
2022/08/06 12:49:29;;;;;;;12.32;6.25;;;22.10;64.70;;;;;;5116050;28;20047;-66
2022/08/06 12:52:20;;;;;;;6.82;4.38;;;22.10;64.00;;;;;;5115729;28;20044;-66
2022/08/06 12:54:55;;;;;;;5.88;5.18;;;22.20;63.20;;;;;;5114722;28;20135;-66
2022/08/06 12:57:26;;;;;;;8.25;5.07;;;22.20;64.50;;;;;;5115840;28;20139;-66
2022/08/06 13:00:14;;;;;;;7.55;5.10;;;22.20;64.00;;;;;;5114864;28;20079;-66
2022/08/06 13:02:42;;;;;;;4.85;4.35;;;22.30;64.30;;;;;;5114023;28;20801;-66
2022/08/06 13:05:12;;;;;;;6.88;4.75;;;22.40;63.60;;;;;;5098405;28;20043;-66
2022/08/06 13:07:40;;;;;;;7.32;4.60;;;22.40;63.00;;;;;;5097304;28;20411;-66
2022/08/06 13:10:10;;;;;;;4.93;4.20;;;22.50;62.80;;;;;;5115158;28;20139;-66
2022/08/06 13:12:59;;;;;;;4.80;4.30;;;22.50;62.70;;;;;;5114401;28;20494;-66
2022/08/06 13:16:10;;;;;;;5.95;4.60;;;22.50;62.10;;;;;;5100898;28;20097;-66
2022/08/06 13:19:08;;;;;;;5.63;3.97;;;22.50;61.50;;;;;;5114386;28;20052;-66
2022/08/06 13:21:45;;;;;;;6.80;4.65;;;22.60;62.40;;;;;;5113529;28;20475;-66
2022/08/06 13:24:26;;;;;;;5.70;4.70;;;22.80;61.90;;;;;;5114221;28;20104;-67
2022/08/06 13:27:01;;;;;;;14.38;6.60;;;22.80;61.20;;;;;;5114266;28;20444;-66
2022/08/06 13:29:33;;;;;;;7.25;4.68;;;22.70;62.40;;;;;;5077676;28;20051;-67
2022/08/06 13:32:24;;;;;;;18.45;13.32;;;22.80;61.00;;;;;;5094334;28;20105;-66
2022/08/06 13:35:04;;;;;;;15.43;8.82;;;22.80;60.70;;;;;;5094473;28;20151;-66
2022/08/06 13:37:52;;;;;;;7.63;4.60;;;22.80;61.90;;;;;;5111329;28;20122;-69